createdAt,value
2019-03-10T00:00:21.481Z,1002.54
2019-03-10T00:01:21.460Z,1002.61
2019-03-10T00:02:21.442Z,1002.67
2019-03-10T00:03:21.443Z,1002.60
2019-03-10T00:04:21.419Z,1002.69
2019-03-10T00:05:21.427Z,1002.70
2019-03-10T00:06:21.392Z,1002.71
2019-03-10T00:07:21.388Z,1002.60
2019-03-10T00:08:21.386Z,1002.75
2019-03-10T00:09:21.364Z,1002.65
2019-03-10T00:10:21.354Z,1002.55
2019-03-10T00:11:21.368Z,1002.60
2019-03-10T00:12:21.335Z,1002.79
2019-03-10T00:13:21.317Z,1002.66
2019-03-10T00:14:21.329Z,1002.77
2019-03-10T00:15:21.305Z,1002.62
2019-03-10T00:16:21.292Z,1002.65
2019-03-10T00:17:21.274Z,1002.75
2019-03-10T00:18:21.259Z,1002.82
2019-03-10T00:19:21.242Z,1002.68
2019-03-10T00:20:21.249Z,1002.60
2019-03-10T00:21:21.242Z,1002.69
2019-03-10T00:22:21.213Z,1002.61
2019-03-10T00:23:21.195Z,1002.67
2019-03-10T00:24:21.200Z,1002.66
2019-03-10T00:25:21.182Z,1002.63
2019-03-10T00:26:21.234Z,1002.67
2019-03-10T00:27:21.164Z,1002.66
2019-03-10T00:28:21.155Z,1002.72
2019-03-10T00:29:21.150Z,1002.80
2019-03-10T00:30:21.122Z,1002.77
2019-03-10T00:31:21.145Z,1002.66
2019-03-10T00:32:21.105Z,1002.68
2019-03-10T00:33:21.117Z,1002.71
2019-03-10T00:34:21.091Z,1002.75
2019-03-10T00:35:21.076Z,1002.83
2019-03-10T00:36:21.055Z,1002.83
2019-03-10T00:37:21.063Z,1002.71
2019-03-10T00:38:21.054Z,1002.86
2019-03-10T00:39:21.030Z,1002.88
2019-03-10T00:40:21.020Z,1002.91
2019-03-10T00:41:21.004Z,1003.00
2019-03-10T00:42:21.011Z,1003.02
2019-03-10T00:43:20.982Z,1002.96
2019-03-10T00:44:20.993Z,1002.86
2019-03-10T00:45:20.950Z,1002.89
2019-03-10T00:46:20.949Z,1002.92
2019-03-10T00:47:20.955Z,1002.99
2019-03-10T00:48:20.917Z,1003.12
2019-03-10T00:49:20.910Z,1002.94
2019-03-10T00:50:20.910Z,1003.05
2019-03-10T00:51:20.897Z,1002.89
2019-03-10T00:52:20.923Z,1003.00
2019-03-10T00:53:20.880Z,1002.95
2019-03-10T00:54:20.857Z,1002.87
2019-03-10T00:55:20.887Z,1003.03
2019-03-10T00:56:20.855Z,1002.84
2019-03-10T00:57:20.811Z,1002.84
2019-03-10T00:58:20.819Z,1003.13
2019-03-10T00:59:20.795Z,1002.88
2019-03-10T01:00:20.795Z,1002.87
2019-03-10T01:01:20.776Z,1002.90
2019-03-10T01:02:20.770Z,1002.75
2019-03-10T01:03:20.770Z,1002.72
2019-03-10T01:04:20.757Z,1002.83
2019-03-10T01:05:20.731Z,1002.87
2019-03-10T01:06:20.769Z,1003.08
2019-03-10T01:07:20.712Z,1002.78
2019-03-10T01:08:20.719Z,1002.57
2019-03-10T01:09:20.695Z,1002.71
2019-03-10T01:10:20.672Z,1002.91
2019-03-10T01:11:20.671Z,1003.00
2019-03-10T01:12:20.656Z,1003.01
2019-03-10T01:13:20.648Z,1002.72
2019-03-10T01:14:20.628Z,1002.74
2019-03-10T01:15:20.632Z,1002.67
2019-03-10T01:16:20.605Z,1002.58
2019-03-10T01:17:20.599Z,1002.89
2019-03-10T01:18:20.600Z,1002.80
2019-03-10T01:19:20.573Z,1002.71
2019-03-10T01:20:20.570Z,1002.83
2019-03-10T01:21:20.560Z,1002.65
2019-03-10T01:22:20.538Z,1002.71
2019-03-10T01:23:20.544Z,1002.63
2019-03-10T01:24:20.515Z,1002.68
2019-03-10T01:25:20.513Z,1002.61
2019-03-10T01:26:20.511Z,1002.52
2019-03-10T01:27:20.488Z,1002.53
2019-03-10T01:28:20.507Z,1002.50
2019-03-10T01:29:20.460Z,1002.57
2019-03-10T01:30:20.452Z,1002.56
2019-03-10T01:31:20.447Z,1002.65
2019-03-10T01:32:20.434Z,1002.56
2019-03-10T01:33:20.460Z,1002.68
2019-03-10T01:34:20.406Z,1002.67
2019-03-10T01:35:20.407Z,1002.62
2019-03-10T01:36:20.394Z,1002.54
2019-03-10T01:37:20.377Z,1002.53
2019-03-10T01:38:20.360Z,1002.54
2019-03-10T01:39:20.368Z,1002.57
2019-03-10T01:40:20.346Z,1002.68
2019-03-10T01:41:20.324Z,1002.52
2019-03-10T01:42:20.326Z,1002.46
2019-03-10T01:43:20.323Z,1002.53
2019-03-10T01:44:20.328Z,1002.49
2019-03-10T01:45:20.299Z,1002.47
2019-03-10T01:46:20.310Z,1002.32
2019-03-10T01:47:20.267Z,1002.42
2019-03-10T01:48:20.264Z,1002.49
2019-03-10T01:49:20.288Z,1002.55
2019-03-10T01:50:20.240Z,1002.44
2019-03-10T01:51:20.224Z,1002.42
2019-03-10T01:52:20.211Z,1002.42
2019-03-10T01:53:25.427Z,1002.37
2019-03-10T01:54:21.270Z,1002.44
2019-03-10T01:55:20.176Z,1002.42
2019-03-10T01:56:20.200Z,1002.45
2019-03-10T01:57:20.155Z,1002.36
2019-03-10T01:58:20.146Z,1002.27
2019-03-10T01:59:20.121Z,1002.40
2019-03-10T02:00:20.131Z,1002.39
2019-03-10T02:01:20.103Z,1002.46
2019-03-10T02:02:25.581Z,1002.40
2019-03-10T02:03:21.090Z,1002.57
2019-03-10T02:04:20.082Z,1002.28
2019-03-10T02:05:20.093Z,1002.27
2019-03-10T02:06:20.067Z,1002.37
2019-03-10T02:07:20.046Z,1002.32
2019-03-10T02:08:20.025Z,1002.28
2019-03-10T02:09:20.013Z,1002.27
2019-03-10T02:10:20.018Z,1002.23
2019-03-10T02:11:20.014Z,1002.42
2019-03-10T02:12:19.994Z,1002.35
2019-03-10T02:13:19.970Z,1002.40
2019-03-10T02:14:19.957Z,1002.21
2019-03-10T02:15:19.969Z,1002.35
2019-03-10T02:16:19.947Z,1002.36
2019-03-10T02:17:19.938Z,1002.31
2019-03-10T02:18:19.913Z,1002.31
2019-03-10T02:19:19.913Z,1002.29
2019-03-10T02:20:19.926Z,1002.11
2019-03-10T02:21:19.887Z,1002.10
2019-03-10T02:22:19.878Z,1002.10
2019-03-10T02:23:19.871Z,1002.26
2019-03-10T02:24:23.678Z,1002.36
2019-03-10T02:25:19.867Z,1002.17
2019-03-10T02:26:19.831Z,1002.26
2019-03-10T02:27:19.830Z,1002.34
2019-03-10T02:28:19.812Z,1002.43
2019-03-10T02:29:19.804Z,1002.24
2019-03-10T02:30:19.802Z,1002.30
2019-03-10T02:31:19.796Z,1002.20
2019-03-10T02:32:19.804Z,1002.28
2019-03-10T02:33:19.748Z,1002.22
2019-03-10T02:34:19.741Z,1002.19
2019-03-10T02:35:19.741Z,1002.07
2019-03-10T02:36:19.711Z,1002.14
2019-03-10T02:37:19.716Z,1002.10
2019-03-10T02:38:19.782Z,1002.06
2019-03-10T02:39:19.693Z,1002.11
2019-03-10T02:40:19.708Z,1002.04
2019-03-10T02:41:19.680Z,1002.15
2019-03-10T02:42:19.649Z,1002.09
2019-03-10T02:43:19.649Z,1001.98
2019-03-10T02:44:19.624Z,1002.01
2019-03-10T02:45:19.643Z,1002.03
2019-03-10T02:46:19.617Z,1001.93
2019-03-10T02:47:19.599Z,1001.97
2019-03-10T02:48:19.584Z,1002.00
2019-03-10T02:49:19.569Z,1001.87
2019-03-10T02:50:19.586Z,1001.87
2019-03-10T02:51:19.558Z,1001.86
2019-03-10T02:52:19.551Z,1001.84
2019-03-10T02:53:19.535Z,1001.79
2019-03-10T02:54:19.513Z,1001.77
2019-03-10T02:55:19.532Z,1001.76
2019-03-10T02:56:19.515Z,1001.73
2019-03-10T02:57:19.497Z,1001.89
2019-03-10T02:58:19.479Z,1001.82
2019-03-10T02:59:19.491Z,1001.90
2019-03-10T03:00:19.493Z,1001.73
2019-03-10T03:01:19.452Z,1001.88
2019-03-10T03:02:19.474Z,1001.79
2019-03-10T03:03:19.433Z,1001.79
2019-03-10T03:04:19.411Z,1001.85
2019-03-10T03:05:19.422Z,1001.72
2019-03-10T03:06:19.390Z,1001.85
2019-03-10T03:07:19.372Z,1001.78
2019-03-10T03:08:19.370Z,1001.73
2019-03-10T03:09:19.376Z,1001.77
2019-03-10T03:10:19.380Z,1001.77
2019-03-10T03:11:19.330Z,1001.70
2019-03-10T03:12:19.318Z,1001.85
2019-03-10T03:13:19.329Z,1001.84
2019-03-10T03:14:19.348Z,1001.87
2019-03-10T03:15:19.297Z,1001.70
2019-03-10T03:16:19.289Z,1001.71
2019-03-10T03:17:19.262Z,1001.62
2019-03-10T03:18:19.269Z,1001.80
2019-03-10T03:19:19.240Z,1001.83
2019-03-10T03:20:19.242Z,1001.74
2019-03-10T03:21:19.241Z,1001.65
2019-03-10T03:22:19.232Z,1001.64
2019-03-10T03:23:19.205Z,1001.62
2019-03-10T03:24:19.184Z,1001.55
2019-03-10T03:25:19.188Z,1001.66
2019-03-10T03:26:19.183Z,1001.53
2019-03-10T03:27:19.150Z,1001.55
2019-03-10T03:28:19.146Z,1001.63
2019-03-10T03:29:19.129Z,1001.61
2019-03-10T03:30:19.123Z,1001.64
2019-03-10T03:31:19.125Z,1001.67
2019-03-10T03:32:19.098Z,1001.49
2019-03-10T03:33:19.111Z,1001.65
2019-03-10T03:34:19.117Z,1001.60
2019-03-10T03:35:19.089Z,1001.53
2019-03-10T03:36:19.087Z,1001.51
2019-03-10T03:37:19.059Z,1001.43
2019-03-10T03:38:19.031Z,1001.46
2019-03-10T03:39:19.123Z,1001.48
2019-03-10T03:40:19.024Z,1001.46
2019-03-10T03:41:19.028Z,1001.45
2019-03-10T03:42:18.996Z,1001.46
2019-03-10T03:43:18.989Z,1001.53
2019-03-10T03:44:18.957Z,1001.48
2019-03-10T03:45:18.950Z,1001.50
2019-03-10T03:46:18.980Z,1001.46
2019-03-10T03:47:18.935Z,1001.41
2019-03-10T03:48:18.922Z,1001.33
2019-03-10T03:49:18.915Z,1001.33
2019-03-10T03:50:18.901Z,1001.37
2019-03-10T03:51:18.913Z,1001.36
2019-03-10T03:52:18.871Z,1001.50
2019-03-10T03:53:18.868Z,1001.30
2019-03-10T03:54:18.847Z,1001.48
2019-03-10T03:55:18.834Z,1001.40
2019-03-10T03:56:18.859Z,1001.29
2019-03-10T03:57:18.830Z,1001.49
2019-03-10T03:58:18.810Z,1001.51
2019-03-10T03:59:18.798Z,1001.30
2019-03-10T04:00:18.782Z,1001.27
2019-03-10T04:01:18.794Z,1001.41
2019-03-10T04:02:18.778Z,1001.26
2019-03-10T04:03:18.763Z,1001.29
2019-03-10T04:04:18.742Z,1001.43
2019-03-10T04:05:18.753Z,1001.50
2019-03-10T04:06:18.747Z,1001.39
2019-03-10T04:07:18.709Z,1001.40
2019-03-10T04:08:18.700Z,1001.40
2019-03-10T04:09:18.722Z,1001.51
2019-03-10T04:10:18.674Z,1001.41
2019-03-10T04:11:18.678Z,1001.45
2019-03-10T04:12:18.661Z,1001.42
2019-03-10T04:13:18.634Z,1001.39
2019-03-10T04:14:18.633Z,1001.40
2019-03-10T04:15:18.614Z,1001.42
2019-03-10T04:16:18.656Z,1001.42
2019-03-10T04:17:18.604Z,1001.57
2019-03-10T04:18:18.587Z,1001.38
2019-03-10T04:19:18.570Z,1001.42
2019-03-10T04:20:18.565Z,1001.44
2019-03-10T04:21:18.555Z,1001.43
2019-03-10T04:22:18.534Z,1001.43
2019-03-10T04:23:18.534Z,1001.51
2019-03-10T04:24:18.550Z,1001.55
2019-03-10T04:25:18.513Z,1001.60
2019-03-10T04:26:18.513Z,1001.35
2019-03-10T04:27:18.488Z,1001.42
2019-03-10T04:28:18.477Z,1001.47
2019-03-10T04:29:18.486Z,1001.45
2019-03-10T04:30:18.454Z,1001.46
2019-03-10T04:31:18.462Z,1001.39
2019-03-10T04:32:18.436Z,1001.52
2019-03-10T04:33:18.410Z,1001.49
2019-03-10T04:34:18.413Z,1001.47
2019-03-10T04:35:18.400Z,1001.44
2019-03-10T04:36:18.450Z,1001.34
2019-03-10T04:37:18.373Z,1001.27
2019-03-10T04:38:18.386Z,1001.39
2019-03-10T04:39:18.340Z,1001.31
2019-03-10T04:40:18.339Z,1001.34
2019-03-10T04:41:18.344Z,1001.50
2019-03-10T04:42:18.318Z,1001.56
2019-03-10T04:43:18.312Z,1001.55
2019-03-10T04:44:18.291Z,1001.46
2019-03-10T04:45:18.282Z,1001.50
2019-03-10T04:46:18.280Z,1001.48
2019-03-10T04:47:18.274Z,1001.45
2019-03-10T04:48:18.250Z,1001.43
2019-03-10T04:49:18.243Z,1001.44
2019-03-10T04:50:18.228Z,1001.38
2019-03-10T04:51:18.253Z,1001.43
2019-03-10T04:52:18.208Z,1001.43
2019-03-10T04:53:18.207Z,1001.49
2019-03-10T04:54:18.185Z,1001.44
2019-03-10T04:55:18.178Z,1001.68
2019-03-10T04:56:18.162Z,1001.57
2019-03-10T04:57:18.166Z,1001.52
2019-03-10T04:58:18.140Z,1001.56
2019-03-10T04:59:18.133Z,1001.55
2019-03-10T05:00:18.121Z,1001.53
2019-03-10T05:01:18.119Z,1001.61
2019-03-10T05:02:18.108Z,1001.50
2019-03-10T05:03:18.084Z,1001.50
2019-03-10T05:04:18.098Z,1001.47
2019-03-10T05:05:18.055Z,1001.49
2019-03-10T05:06:18.056Z,1001.56
2019-03-10T05:07:18.062Z,1001.63
2019-03-10T05:08:18.073Z,1001.52
2019-03-10T05:09:18.026Z,1001.51
2019-03-10T05:10:18.018Z,1001.47
2019-03-10T05:11:18.005Z,1001.47
2019-03-10T05:12:18.009Z,1001.54
2019-03-10T05:13:17.962Z,1001.52
2019-03-10T05:14:17.955Z,1001.52
2019-03-10T05:15:17.952Z,1001.60
2019-03-10T05:16:17.947Z,1001.54
2019-03-10T05:17:17.945Z,1001.56
2019-03-10T05:18:17.921Z,1001.62
2019-03-10T05:19:17.900Z,1001.57
2019-03-10T05:20:17.901Z,1001.42
2019-03-10T05:21:17.877Z,1001.42
2019-03-10T05:22:17.887Z,1001.48
2019-03-10T05:23:17.857Z,1001.42
2019-03-10T05:24:17.862Z,1001.37
2019-03-10T05:25:17.837Z,1001.37
2019-03-10T05:26:17.857Z,1001.36
2019-03-10T05:27:17.833Z,1001.52
2019-03-10T05:28:17.814Z,1001.34
2019-03-10T05:29:17.799Z,1001.26
2019-03-10T05:30:17.797Z,1001.27
2019-03-10T05:31:17.762Z,1001.38
2019-03-10T05:32:17.778Z,1001.33
2019-03-10T05:33:17.754Z,1001.27
2019-03-10T05:34:17.736Z,1001.27
2019-03-10T05:35:17.777Z,1001.27
2019-03-10T05:36:17.764Z,1001.31
2019-03-10T05:37:17.718Z,1001.29
2019-03-10T05:38:17.700Z,1001.30
2019-03-10T05:39:17.688Z,1001.28
2019-03-10T05:40:17.673Z,1001.33
2019-03-10T05:41:17.682Z,1001.25
2019-03-10T05:42:17.671Z,1001.28
2019-03-10T05:43:17.651Z,1001.24
2019-03-10T05:44:17.622Z,1001.35
2019-03-10T05:45:17.622Z,1001.22
2019-03-10T05:46:17.618Z,1001.23
2019-03-10T05:47:17.612Z,1001.20
2019-03-10T05:48:17.582Z,1001.14
2019-03-10T05:49:17.575Z,1001.17
2019-03-10T05:50:17.551Z,1001.26
2019-03-10T05:51:17.552Z,1001.26
2019-03-10T05:52:17.528Z,1001.14
2019-03-10T05:53:17.545Z,1001.09
2019-03-10T05:54:17.514Z,1001.13
2019-03-10T05:55:17.506Z,1001.21
2019-03-10T05:56:17.492Z,1001.25
2019-03-10T05:57:17.475Z,1001.08
2019-03-10T05:58:17.488Z,1001.01
2019-03-10T05:59:17.459Z,1000.98
2019-03-10T06:00:17.452Z,1001.03
2019-03-10T06:01:17.433Z,1001.05
2019-03-10T06:02:17.444Z,1001.13
2019-03-10T06:03:17.434Z,1001.16
2019-03-10T06:04:17.409Z,1001.06
2019-03-10T06:05:17.394Z,1000.91
2019-03-10T06:06:17.389Z,1000.83
2019-03-10T06:07:17.366Z,1000.84
2019-03-10T06:08:17.372Z,1000.89
2019-03-10T06:09:17.348Z,1000.77
2019-03-10T06:10:17.342Z,1000.91
2019-03-10T06:11:17.336Z,1000.81
2019-03-10T06:12:17.321Z,1000.73
2019-03-10T06:13:17.324Z,1000.93
2019-03-10T06:14:17.293Z,1000.93
2019-03-10T06:15:17.293Z,1000.73
2019-03-10T06:16:17.282Z,1000.64
2019-03-10T06:17:17.265Z,1000.71
2019-03-10T06:18:17.277Z,1000.68
2019-03-10T06:19:17.254Z,1000.72
2019-03-10T06:20:17.227Z,1000.67
2019-03-10T06:21:17.232Z,1000.71
2019-03-10T06:22:17.213Z,1000.69
2019-03-10T06:23:17.225Z,1000.60
2019-03-10T06:24:17.185Z,1000.74
2019-03-10T06:25:17.174Z,1000.78
2019-03-10T06:26:17.160Z,1000.73
2019-03-10T06:27:17.151Z,1000.77
2019-03-10T06:28:17.167Z,1000.73
2019-03-10T06:29:17.129Z,1000.75
2019-03-10T06:30:17.129Z,1000.78
2019-03-10T06:31:17.104Z,1000.75
2019-03-10T06:32:17.094Z,1000.62
2019-03-10T06:33:17.085Z,1000.69
2019-03-10T06:34:17.102Z,1000.64
2019-03-10T06:35:17.062Z,1000.70
2019-03-10T06:36:17.073Z,1000.71
2019-03-10T06:37:17.041Z,1000.81
2019-03-10T06:38:17.039Z,1000.76
2019-03-10T06:39:17.047Z,1000.84
2019-03-10T06:40:17.034Z,1000.80
2019-03-10T06:41:17.012Z,1000.77
2019-03-10T06:42:16.989Z,1000.79
2019-03-10T06:43:16.969Z,1000.75
2019-03-10T06:44:16.983Z,1000.50
2019-03-10T06:45:16.980Z,1000.46
2019-03-10T06:46:16.949Z,1000.53
2019-03-10T06:47:16.929Z,1000.48
2019-03-10T06:48:16.911Z,1000.42
2019-03-10T06:49:16.934Z,1000.40
2019-03-10T06:50:16.899Z,1000.51
2019-03-10T06:51:16.896Z,1000.50
2019-03-10T06:52:16.878Z,1000.53
2019-03-10T06:53:16.869Z,1000.48
2019-03-10T06:54:16.858Z,1000.59
2019-03-10T06:55:16.834Z,1000.55
2019-03-10T06:56:16.834Z,1000.66
2019-03-10T06:57:16.826Z,1000.56
2019-03-10T06:58:16.811Z,1000.56
2019-03-10T06:59:16.827Z,1000.49
2019-03-10T07:00:17.657Z,1000.45
2019-03-10T07:01:16.788Z,1000.56
2019-03-10T07:02:16.773Z,1000.58
2019-03-10T07:03:16.753Z,1000.49
2019-03-10T07:04:16.777Z,1000.58
2019-03-10T07:05:16.734Z,1000.50
2019-03-10T07:06:16.737Z,1000.52
2019-03-10T07:07:16.708Z,1000.50
2019-03-10T07:08:16.707Z,1000.42
2019-03-10T07:09:16.698Z,1000.52
2019-03-10T07:10:16.698Z,1000.55
2019-03-10T07:11:16.661Z,1000.50
2019-03-10T07:12:16.662Z,1000.45
2019-03-10T07:13:16.667Z,1000.57
2019-03-10T07:14:16.636Z,1000.36
2019-03-10T07:15:16.651Z,1000.51
2019-03-10T07:16:16.620Z,1000.42
2019-03-10T07:17:16.594Z,1000.33
2019-03-10T07:18:16.588Z,1000.37
2019-03-10T07:19:16.581Z,1000.48
2019-03-10T07:20:16.591Z,1000.45
2019-03-10T07:21:16.556Z,1000.45
2019-03-10T07:22:16.548Z,1000.41
2019-03-10T07:23:16.534Z,1000.43
2019-03-10T07:24:16.537Z,1000.38
2019-03-10T07:25:16.529Z,1000.34
2019-03-10T07:26:16.496Z,1000.39
2019-03-10T07:27:16.495Z,1000.39
2019-03-10T07:28:16.477Z,1000.39
2019-03-10T07:29:16.474Z,1000.41
2019-03-10T07:30:16.488Z,1000.43
2019-03-10T07:31:16.455Z,1000.35
2019-03-10T07:32:16.430Z,1000.33
2019-03-10T07:33:16.423Z,1000.27
2019-03-10T07:34:16.414Z,1000.42
2019-03-10T07:35:16.427Z,1000.36
2019-03-10T07:36:16.394Z,1000.32
2019-03-10T07:37:16.488Z,1000.32
2019-03-10T07:38:16.371Z,1000.35
2019-03-10T07:39:16.394Z,1000.36
2019-03-10T07:40:16.383Z,1000.32
2019-03-10T07:41:16.329Z,1000.42
2019-03-10T07:42:16.323Z,1000.40
2019-03-10T07:43:16.317Z,1000.45
2019-03-10T07:44:16.321Z,1000.46
2019-03-10T07:45:16.312Z,1000.34
2019-03-10T07:46:16.283Z,1000.22
2019-03-10T07:47:16.279Z,1000.28
2019-03-10T07:48:16.259Z,1000.27
2019-03-10T07:49:18.026Z,1000.47
2019-03-10T07:50:16.269Z,1000.31
2019-03-10T07:51:16.235Z,1000.16
2019-03-10T07:52:20.125Z,1000.16
2019-03-10T07:53:16.211Z,1000.10
2019-03-10T07:54:16.191Z,1000.06
2019-03-10T07:55:16.175Z,1000.09
2019-03-10T07:56:16.193Z,1000.07
2019-03-10T07:57:16.154Z,1000.11
2019-03-10T07:58:16.152Z,1000.03
2019-03-10T07:59:16.145Z,1000.07
2019-03-10T08:00:16.131Z,1000.02
2019-03-10T08:01:16.126Z,1000.08
2019-03-10T08:02:16.099Z,1000.04
2019-03-10T08:03:16.097Z,1000.00
2019-03-10T08:04:16.117Z,1000.03
2019-03-10T08:05:16.074Z,1000.01
2019-03-10T08:06:16.084Z,999.90
2019-03-10T08:07:16.086Z,1000.07
2019-03-10T08:08:16.047Z,1000.15
2019-03-10T08:09:16.029Z,1000.14
2019-03-10T08:10:16.010Z,1000.11
2019-03-10T08:11:16.027Z,999.98
2019-03-10T08:12:15.991Z,1000.05
2019-03-10T08:13:15.979Z,1000.02
2019-03-10T08:14:15.963Z,999.92
2019-03-10T08:15:15.951Z,999.86
2019-03-10T08:16:15.969Z,999.91
2019-03-10T08:17:15.937Z,999.93
2019-03-10T08:18:15.943Z,999.92
2019-03-10T08:19:15.918Z,999.90
2019-03-10T08:20:15.909Z,1000.01
2019-03-10T08:21:15.965Z,999.92
2019-03-10T08:22:15.889Z,999.83
2019-03-10T08:23:15.878Z,999.86
2019-03-10T08:24:15.857Z,999.79
2019-03-10T08:25:15.856Z,999.83
2019-03-10T08:26:15.864Z,999.74
2019-03-10T08:27:15.832Z,999.73
2019-03-10T08:28:15.831Z,999.77
2019-03-10T08:29:15.809Z,999.75
2019-03-10T08:30:15.792Z,999.60
2019-03-10T08:31:15.810Z,999.50
2019-03-10T08:32:15.764Z,999.51
2019-03-10T08:33:15.768Z,999.47
2019-03-10T08:34:15.750Z,999.37
2019-03-10T08:35:15.742Z,999.34
2019-03-10T08:36:15.747Z,999.40
2019-03-10T08:37:15.710Z,999.44
2019-03-10T08:38:15.712Z,999.36
2019-03-10T08:39:15.686Z,999.33
2019-03-10T08:40:15.688Z,999.42
2019-03-10T08:41:15.678Z,999.31
2019-03-10T08:42:20.282Z,999.23
2019-03-10T08:43:16.648Z,999.34
2019-03-10T08:44:15.641Z,999.25
2019-03-10T08:45:15.624Z,999.23
2019-03-10T08:46:15.619Z,999.20
2019-03-10T08:47:15.620Z,999.23
2019-03-10T08:48:15.589Z,999.19
2019-03-10T08:49:15.669Z,999.21
2019-03-10T08:50:15.665Z,999.18
2019-03-10T08:51:15.562Z,999.20
2019-03-10T08:52:15.595Z,999.18
2019-03-10T08:53:15.548Z,999.19
2019-03-10T08:54:15.547Z,999.27
2019-03-10T08:55:15.520Z,999.21
2019-03-10T08:56:15.511Z,999.20
2019-03-10T08:57:15.520Z,999.20
2019-03-10T08:58:15.491Z,999.16
2019-03-10T08:59:15.468Z,999.28
2019-03-10T09:00:15.460Z,999.12
2019-03-10T09:01:15.452Z,999.14
2019-03-10T09:02:15.456Z,999.11
2019-03-10T09:03:15.420Z,999.13
2019-03-10T09:04:15.426Z,999.15
2019-03-10T09:05:15.409Z,999.16
2019-03-10T09:06:15.418Z,999.10
2019-03-10T09:07:15.427Z,999.11
2019-03-10T09:08:15.367Z,999.11
2019-03-10T09:09:15.362Z,999.10
2019-03-10T09:10:15.360Z,999.20
2019-03-10T09:11:15.361Z,999.20
2019-03-10T09:12:15.361Z,999.06
2019-03-10T09:13:15.354Z,999.09
2019-03-10T09:14:15.314Z,999.08
2019-03-10T09:15:15.299Z,998.92
2019-03-10T09:16:15.301Z,999.10
2019-03-10T09:17:15.314Z,999.10
2019-03-10T09:18:15.254Z,998.90
2019-03-10T09:19:15.318Z,998.91
2019-03-10T09:20:15.251Z,998.94
2019-03-10T09:21:15.244Z,998.89
2019-03-10T09:22:15.245Z,998.83
2019-03-10T09:23:15.233Z,998.82
2019-03-10T09:24:15.200Z,998.85
2019-03-10T09:25:15.182Z,998.86
2019-03-10T09:26:15.182Z,998.87
2019-03-10T09:27:15.197Z,998.89
2019-03-10T09:28:15.169Z,998.81
2019-03-10T09:29:15.134Z,998.84
2019-03-10T09:30:15.141Z,998.78
2019-03-10T09:31:15.124Z,998.82
2019-03-10T09:32:15.116Z,998.60
2019-03-10T09:33:15.128Z,998.60
2019-03-10T09:34:15.090Z,998.58
2019-03-10T09:35:15.070Z,998.58
2019-03-10T09:36:15.054Z,998.53
2019-03-10T09:37:15.056Z,998.48
2019-03-10T09:38:15.061Z,998.47
2019-03-10T09:39:15.036Z,998.44
2019-03-10T09:40:15.019Z,998.43
2019-03-10T09:41:15.008Z,998.45
2019-03-10T09:42:14.988Z,998.41
2019-03-10T09:43:15.021Z,998.36
2019-03-10T09:44:14.984Z,998.45
2019-03-10T09:45:14.966Z,998.43
2019-03-10T09:46:14.976Z,998.34
2019-03-10T09:47:14.951Z,998.31
2019-03-10T09:48:14.984Z,998.24
2019-03-10T09:49:14.943Z,998.33
2019-03-10T09:50:14.903Z,998.18
2019-03-10T09:51:14.896Z,998.31
2019-03-10T09:52:14.908Z,998.24
2019-03-10T09:53:14.894Z,998.07
2019-03-10T09:54:14.892Z,998.12
2019-03-10T09:55:14.854Z,998.24
2019-03-10T09:56:14.840Z,998.23
2019-03-10T09:57:14.837Z,998.13
2019-03-10T09:58:14.833Z,998.14
2019-03-10T09:59:14.800Z,998.11
2019-03-10T10:00:14.796Z,998.07
2019-03-10T10:01:14.785Z,998.08
2019-03-10T10:02:14.768Z,998.15
2019-03-10T10:03:14.790Z,998.10
2019-03-10T10:04:14.748Z,998.00
2019-03-10T10:05:14.737Z,998.24
2019-03-10T10:06:14.733Z,998.16
2019-03-10T10:07:14.722Z,998.19
2019-03-10T10:08:14.729Z,998.03
2019-03-10T10:09:14.739Z,998.06
2019-03-10T10:10:14.704Z,997.95
2019-03-10T10:11:14.683Z,998.00
2019-03-10T10:12:14.677Z,998.02
2019-03-10T10:13:14.657Z,998.02
2019-03-10T10:14:14.667Z,998.00
2019-03-10T10:15:14.625Z,997.99
2019-03-10T10:16:14.618Z,997.83
2019-03-10T10:17:14.604Z,997.81
2019-03-10T10:18:14.594Z,997.81
2019-03-10T10:19:14.593Z,997.86
2019-03-10T10:20:14.589Z,997.83
2019-03-10T10:21:14.570Z,997.85
2019-03-10T10:22:14.563Z,997.85
2019-03-10T10:23:14.538Z,997.80
2019-03-10T10:24:14.563Z,997.91
2019-03-10T10:25:14.526Z,997.87
2019-03-10T10:26:14.507Z,997.73
2019-03-10T10:27:14.491Z,997.69
2019-03-10T10:28:14.484Z,997.56
2019-03-10T10:29:14.499Z,997.59
2019-03-10T10:30:14.470Z,997.72
2019-03-10T10:31:14.464Z,997.55
2019-03-10T10:32:14.428Z,997.51
2019-03-10T10:33:14.423Z,997.50
2019-03-10T10:34:14.445Z,997.49
2019-03-10T10:35:14.401Z,997.49
2019-03-10T10:36:14.397Z,997.48
2019-03-10T10:37:14.384Z,997.38
2019-03-10T10:38:18.548Z,997.51
2019-03-10T10:39:14.381Z,997.54
2019-03-10T10:40:14.346Z,997.55
2019-03-10T10:41:14.338Z,997.44
2019-03-10T10:42:14.333Z,997.36
2019-03-10T10:43:14.309Z,997.19
2019-03-10T10:44:14.335Z,997.23
2019-03-10T10:45:14.294Z,997.20
2019-03-10T10:46:14.289Z,997.19
2019-03-10T10:47:14.282Z,997.28
2019-03-10T10:48:14.274Z,997.25
2019-03-10T10:49:14.286Z,997.32
2019-03-10T10:50:14.250Z,997.32
2019-03-10T10:51:14.249Z,997.21
2019-03-10T10:52:14.241Z,997.21
2019-03-10T10:53:14.469Z,997.20
2019-03-10T10:54:14.230Z,997.19
2019-03-10T10:55:14.181Z,997.14
2019-03-10T10:56:14.184Z,997.12
2019-03-10T10:57:14.167Z,997.18
2019-03-10T10:58:14.164Z,997.20
2019-03-10T10:59:14.178Z,997.19
2019-03-10T11:00:14.126Z,997.17
2019-03-10T11:01:14.105Z,997.22
2019-03-10T11:02:14.108Z,997.14
2019-03-10T11:03:14.109Z,997.14
2019-03-10T11:04:14.103Z,997.13
2019-03-10T11:05:14.075Z,997.17
2019-03-10T11:06:14.063Z,997.08
2019-03-10T11:07:14.050Z,997.10
2019-03-10T11:08:14.031Z,997.16
2019-03-10T11:09:14.067Z,997.04
2019-03-10T11:10:14.019Z,997.03
2019-03-10T11:11:14.035Z,997.11
2019-03-10T11:12:14.003Z,996.91
2019-03-10T11:13:13.980Z,996.91
2019-03-10T11:14:14.004Z,996.90
2019-03-10T11:15:13.970Z,996.82
2019-03-10T11:16:13.960Z,996.66
2019-03-10T11:17:13.962Z,996.70
2019-03-10T11:18:13.922Z,996.77
2019-03-10T11:19:13.920Z,996.69
2019-03-10T11:20:13.937Z,996.72
2019-03-10T11:21:13.947Z,996.70
2019-03-10T11:22:13.875Z,996.78
2019-03-10T11:23:13.874Z,996.62
2019-03-10T11:24:13.874Z,996.66
2019-03-10T11:25:13.855Z,996.57
2019-03-10T11:26:13.851Z,996.56
2019-03-10T11:27:13.844Z,996.47
2019-03-10T11:28:13.818Z,996.40
2019-03-10T11:29:13.826Z,996.43
2019-03-10T11:30:13.789Z,996.28
2019-03-10T11:31:14.075Z,996.33
2019-03-10T11:32:13.787Z,996.40
2019-03-10T11:33:13.765Z,996.44
2019-03-10T11:34:13.790Z,996.58
2019-03-10T11:35:13.748Z,996.52
2019-03-10T11:36:13.734Z,996.47
2019-03-10T11:37:13.715Z,996.46
2019-03-10T11:38:13.714Z,996.52
2019-03-10T11:39:13.724Z,996.46
2019-03-10T11:40:13.685Z,996.46
2019-03-10T11:41:13.690Z,996.47
2019-03-10T11:42:13.661Z,996.56
2019-03-10T11:43:13.650Z,996.50
2019-03-10T11:44:13.670Z,996.49
2019-03-10T11:45:13.634Z,996.49
2019-03-10T11:46:13.635Z,996.43
2019-03-10T11:47:13.620Z,996.41
2019-03-10T11:48:13.597Z,996.39
2019-03-10T11:49:13.607Z,996.39
2019-03-10T11:50:15.162Z,996.25
2019-03-10T11:51:13.562Z,996.37
2019-03-10T11:52:13.558Z,996.22
2019-03-10T11:53:19.255Z,996.36
2019-03-10T11:54:14.562Z,996.30
2019-03-10T11:55:13.561Z,996.27
2019-03-10T11:56:13.502Z,996.18
2019-03-10T11:57:13.493Z,996.09
2019-03-10T11:58:13.484Z,996.08
2019-03-10T11:59:13.474Z,996.13
2019-03-10T12:00:13.488Z,996.01
2019-03-10T12:01:13.450Z,995.93
2019-03-10T12:02:16.459Z,995.95
2019-03-10T12:03:13.441Z,996.00
2019-03-10T12:04:13.433Z,995.81
2019-03-10T12:05:13.500Z,996.01
2019-03-10T12:06:13.396Z,996.00
2019-03-10T12:07:13.384Z,995.85
2019-03-10T12:08:13.362Z,995.91
2019-03-10T12:09:13.378Z,995.81
2019-03-10T12:10:13.385Z,995.82
2019-03-10T12:11:13.338Z,995.88
2019-03-10T12:12:13.322Z,995.75
2019-03-10T12:13:13.328Z,995.74